メインページ
METAR-TAF:

METAR-TAF

空港 :

ナタール, リオグランデ・ド・ノルテ州, ブラジル

緯度: 05-46-05S, 経度: 035-22-34W, 海抜: 88m

現時点の気象観測

当レポートは30分前の01:00(UTC)に作成
南/南西の風 4kt、から西/南西の間で変化する
気温 23°C
湿度 89%
気圧 1018 hPa
視程10km以上
高度2300ftの雲はほとんどない

METAR: SBSG 190100Z 21004KT 180V250 9999 FEW023 23/21 Q1018

時間: 22:30 (01:30 UTC)

予報

当レポートは3時間30分前の22:00(UTC)に作成
予報は19日の 00時(UTC)から 19日の 24時(UTC)まで有効
南西の風 5kt
視程: 9000m
高度2000ftの雲は散在している
確率 30% :
19日の 06時(UTC)から 19日の 08時(UTC)まで一時的に
視程: 5000m
高度1200ftの雲は散在している
高度1700ftの千切れ雲あり
19日の 11時(UTC)から 19日の 13時(UTC)まで徐々に
の風 12kt
高度2000ftの千切れ雲あり
19日の 16時(UTC)から 19日の 17時(UTC)まで徐々に
高度2300ftの雲は散在している
19日の 21時(UTC)から 19日の 22時(UTC)まで徐々に
の風 6kt

TAF: SBSG 182200Z 1900/1924 22005KT 9000 SCT020 TN21/1909Z TX29/1916Z PROB30 TEMPO 1906/1908 5000 RA SCT012 BKN017 BECMG 1911/1913 17012KT BKN020 BECMG 1916/1917 SCT023 BECMG 1921/1922 18006KT RMK PEI

4,000以上の空港の気象観測と天気予報(METAR報とTAF報)

利用可能な観測所は地図上に黄色い丸と赤い丸で示す。

丸の上にカーソルを重ねると観測所名を参照できる。

次にクリックすると気象観測と天気予報を参照できる。

マップの切り替え:黒色「×」印の緑ボタンをクリックして拡大、「-」印の緑ボタンをクリックして縮小、緑色の三角印をクリックして隣りの地図に切り替え


METAR-TAF: